sensor_id;sensor_type;location;lat;lon;timestamp;P1;durP1;ratioP1;P2;durP2;ratioP2
29044;SDS011;16133;49.486;12.176;2022-07-23T00:00:00;10.82;;;8.57;;
29044;SDS011;16133;49.486;12.176;2022-07-23T00:02:25;10.00;;;7.13;;
29044;SDS011;16133;49.486;12.176;2022-07-23T00:04:50;11.98;;;7.70;;
29044;SDS011;16133;49.486;12.176;2022-07-23T00:07:16;10.18;;;7.75;;
29044;SDS011;16133;49.486;12.176;2022-07-23T00:09:41;10.98;;;6.55;;
29044;SDS011;16133;49.486;12.176;2022-07-23T00:12:07;11.30;;;7.35;;
29044;SDS011;16133;49.486;12.176;2022-07-23T00:14:32;10.48;;;7.53;;
29044;SDS011;16133;49.486;12.176;2022-07-23T00:16:58;9.93;;;7.72;;
29044;SDS011;16133;49.486;12.176;2022-07-23T00:19:23;9.95;;;7.65;;
29044;SDS011;16133;49.486;12.176;2022-07-23T00:21:48;10.32;;;7.30;;
29044;SDS011;16133;49.486;12.176;2022-07-23T00:24:14;10.02;;;7.60;;
29044;SDS011;16133;49.486;12.176;2022-07-23T00:26:39;9.93;;;7.78;;
29044;SDS011;16133;49.486;12.176;2022-07-23T00:29:04;10.50;;;8.05;;
29044;SDS011;16133;49.486;12.176;2022-07-23T00:31:30;12.70;;;8.35;;
29044;SDS011;16133;49.486;12.176;2022-07-23T00:33:55;11.02;;;8.02;;
29044;SDS011;16133;49.486;12.176;2022-07-23T00:36:22;10.82;;;7.93;;
29044;SDS011;16133;49.486;12.176;2022-07-23T00:38:48;11.15;;;8.55;;
29044;SDS011;16133;49.486;12.176;2022-07-23T00:41:14;13.40;;;9.52;;
29044;SDS011;16133;49.486;12.176;2022-07-23T00:43:39;13.43;;;9.20;;
29044;SDS011;16133;49.486;12.176;2022-07-23T00:46:05;10.88;;;8.38;;
29044;SDS011;16133;49.486;12.176;2022-07-23T00:48:30;12.93;;;9.35;;
29044;SDS011;16133;49.486;12.176;2022-07-23T00:50:55;13.63;;;9.35;;
29044;SDS011;16133;49.486;12.176;2022-07-23T00:53:21;15.40;;;10.05;;
29044;SDS011;16133;49.486;12.176;2022-07-23T00:55:47;16.95;;;10.88;;
29044;SDS011;16133;49.486;12.176;2022-07-23T00:58:13;14.23;;;9.80;;
29044;SDS011;16133;49.486;12.176;2022-07-23T01:00:40;14.63;;;9.23;;
29044;SDS011;16133;49.486;12.176;2022-07-23T01:03:06;12.48;;;8.73;;
29044;SDS011;16133;49.486;12.176;2022-07-23T01:05:32;12.25;;;8.65;;
29044;SDS011;16133;49.486;12.176;2022-07-23T01:07:58;12.98;;;9.43;;
29044;SDS011;16133;49.486;12.176;2022-07-23T01:10:24;14.23;;;10.05;;
29044;SDS011;16133;49.486;12.176;2022-07-23T01:12:56;15.25;;;8.90;;
29044;SDS011;16133;49.486;12.176;2022-07-23T01:15:22;12.13;;;9.20;;
29044;SDS011;16133;49.486;12.176;2022-07-23T01:17:48;14.50;;;9.93;;
29044;SDS011;16133;49.486;12.176;2022-07-23T01:20:14;15.45;;;11.32;;
29044;SDS011;16133;49.486;12.176;2022-07-23T01:22:39;19.50;;;11.40;;
29044;SDS011;16133;49.486;12.176;2022-07-23T01:25:04;14.90;;;10.88;;
29044;SDS011;16133;49.486;12.176;2022-07-23T01:27:30;18.45;;;12.50;;
29044;SDS011;16133;49.486;12.176;2022-07-23T01:29:56;16.55;;;11.73;;
29044;SDS011;16133;49.486;12.176;2022-07-23T01:32:22;17.58;;;12.02;;
29044;SDS011;16133;49.486;12.176;2022-07-23T01:34:47;19.02;;;12.10;;
29044;SDS011;16133;49.486;12.176;2022-07-23T01:37:13;17.27;;;11.07;;
29044;SDS011;16133;49.486;12.176;2022-07-23T01:39:38;16.98;;;10.65;;
29044;SDS011;16133;49.486;12.176;2022-07-23T01:42:04;17.27;;;11.95;;
29044;SDS011;16133;49.486;12.176;2022-07-23T01:44:30;14.85;;;10.57;;
29044;SDS011;16133;49.486;12.176;2022-07-23T01:46:55;15.38;;;10.23;;
29044;SDS011;16133;49.486;12.176;2022-07-23T01:49:21;21.35;;;12.48;;
29044;SDS011;16133;49.486;12.176;2022-07-23T01:51:46;17.45;;;12.02;;
29044;SDS011;16133;49.486;12.176;2022-07-23T01:56:56;18.20;;;10.85;;
29044;SDS011;16133;49.486;12.176;2022-07-23T01:59:22;15.30;;;11.40;;
29044;SDS011;16133;49.486;12.176;2022-07-23T02:01:48;17.73;;;11.90;;
29044;SDS011;16133;49.486;12.176;2022-07-23T02:04:15;18.10;;;11.20;;
29044;SDS011;16133;49.486;12.176;2022-07-23T02:06:41;18.30;;;10.70;;
29044;SDS011;16133;49.486;12.176;2022-07-23T02:09:07;15.52;;;10.95;;
29044;SDS011;16133;49.486;12.176;2022-07-23T02:11:32;17.30;;;11.43;;
29044;SDS011;16133;49.486;12.176;2022-07-23T02:13:58;15.57;;;11.02;;
29044;SDS011;16133;49.486;12.176;2022-07-23T02:16:23;19.65;;;12.65;;
29044;SDS011;16133;49.486;12.176;2022-07-23T02:18:48;17.70;;;12.15;;
29044;SDS011;16133;49.486;12.176;2022-07-23T02:21:14;15.63;;;11.55;;
29044;SDS011;16133;49.486;12.176;2022-07-23T02:23:39;18.50;;;12.05;;
29044;SDS011;16133;49.486;12.176;2022-07-23T02:26:05;16.90;;;11.20;;
29044;SDS011;16133;49.486;12.176;2022-07-23T02:28:30;15.35;;;11.23;;
29044;SDS011;16133;49.486;12.176;2022-07-23T02:30:56;15.93;;;11.13;;
29044;SDS011;16133;49.486;12.176;2022-07-23T02:33:21;15.55;;;10.82;;
29044;SDS011;16133;49.486;12.176;2022-07-23T02:35:46;16.00;;;10.80;;
29044;SDS011;16133;49.486;12.176;2022-07-23T02:38:12;17.92;;;11.13;;
29044;SDS011;16133;49.486;12.176;2022-07-23T02:40:37;17.58;;;12.85;;
29044;SDS011;16133;49.486;12.176;2022-07-23T02:43:03;16.27;;;11.65;;
29044;SDS011;16133;49.486;12.176;2022-07-23T02:45:29;16.27;;;11.13;;
29044;SDS011;16133;49.486;12.176;2022-07-23T02:47:54;17.15;;;11.27;;
29044;SDS011;16133;49.486;12.176;2022-07-23T02:50:19;15.90;;;11.48;;
29044;SDS011;16133;49.486;12.176;2022-07-23T02:52:45;17.05;;;11.63;;
29044;SDS011;16133;49.486;12.176;2022-07-23T02:55:10;15.63;;;11.25;;
29044;SDS011;16133;49.486;12.176;2022-07-23T02:57:36;16.48;;;11.45;;
29044;SDS011;16133;49.486;12.176;2022-07-23T03:00:02;16.05;;;10.43;;
29044;SDS011;16133;49.486;12.176;2022-07-23T03:02:29;17.83;;;11.52;;
29044;SDS011;16133;49.486;12.176;2022-07-23T03:04:54;15.05;;;11.63;;
29044;SDS011;16133;49.486;12.176;2022-07-23T03:07:20;15.75;;;11.68;;
29044;SDS011;16133;49.486;12.176;2022-07-23T03:09:45;17.27;;;12.35;;
29044;SDS011;16133;49.486;12.176;2022-07-23T03:12:11;17.98;;;12.38;;
29044;SDS011;16133;49.486;12.176;2022-07-23T03:14:36;17.65;;;11.85;;
29044;SDS011;16133;49.486;12.176;2022-07-23T03:17:01;17.40;;;11.65;;
29044;SDS011;16133;49.486;12.176;2022-07-23T03:19:27;15.82;;;10.52;;
29044;SDS011;16133;49.486;12.176;2022-07-23T03:21:52;18.23;;;11.85;;
29044;SDS011;16133;49.486;12.176;2022-07-23T03:24:17;17.85;;;11.88;;
29044;SDS011;16133;49.486;12.176;2022-07-23T03:26:43;13.60;;;9.93;;
29044;SDS011;16133;49.486;12.176;2022-07-23T03:29:09;17.83;;;11.05;;
29044;SDS011;16133;49.486;12.176;2022-07-23T03:31:34;16.95;;;11.38;;
29044;SDS011;16133;49.486;12.176;2022-07-23T03:34:00;16.42;;;10.77;;
29044;SDS011;16133;49.486;12.176;2022-07-23T03:36:26;21.40;;;12.45;;
29044;SDS011;16133;49.486;12.176;2022-07-23T03:38:51;15.10;;;10.45;;
29044;SDS011;16133;49.486;12.176;2022-07-23T03:41:17;22.25;;;13.25;;
29044;SDS011;16133;49.486;12.176;2022-07-23T03:43:43;25.42;;;12.38;;
29044;SDS011;16133;49.486;12.176;2022-07-23T03:46:08;21.00;;;13.55;;
29044;SDS011;16133;49.486;12.176;2022-07-23T03:48:34;22.08;;;11.95;;
29044;SDS011;16133;49.486;12.176;2022-07-23T03:51:00;13.85;;;10.23;;
29044;SDS011;16133;49.486;12.176;2022-07-23T03:53:25;16.95;;;11.45;;
29044;SDS011;16133;49.486;12.176;2022-07-23T03:55:51;17.08;;;11.30;;
29044;SDS011;16133;49.486;12.176;2022-07-23T03:58:16;20.15;;;11.50;;
29044;SDS011;16133;49.486;12.176;2022-07-23T04:00:41;18.15;;;11.70;;
29044;SDS011;16133;49.486;12.176;2022-07-23T04:03:10;17.30;;;10.55;;
29044;SDS011;16133;49.486;12.176;2022-07-23T04:05:35;16.02;;;10.85;;
29044;SDS011;16133;49.486;12.176;2022-07-23T04:08:01;17.08;;;11.73;;
29044;SDS011;16133;49.486;12.176;2022-07-23T04:10:29;14.68;;;11.20;;
29044;SDS011;16133;49.486;12.176;2022-07-23T04:12:54;16.80;;;10.52;;
29044;SDS011;16133;49.486;12.176;2022-07-23T04:15:20;15.02;;;11.63;;
29044;SDS011;16133;49.486;12.176;2022-07-23T04:17:45;15.40;;;10.70;;
29044;SDS011;16133;49.486;12.176;2022-07-23T04:20:11;17.52;;;11.40;;
29044;SDS011;16133;49.486;12.176;2022-07-23T04:22:37;14.18;;;10.43;;
29044;SDS011;16133;49.486;12.176;2022-07-23T04:25:03;17.13;;;10.57;;
29044;SDS011;16133;49.486;12.176;2022-07-23T04:27:29;17.10;;;11.82;;
29044;SDS011;16133;49.486;12.176;2022-07-23T04:29:54;16.85;;;11.82;;
29044;SDS011;16133;49.486;12.176;2022-07-23T04:32:19;17.13;;;10.95;;
29044;SDS011;16133;49.486;12.176;2022-07-23T04:34:45;18.73;;;12.32;;
29044;SDS011;16133;49.486;12.176;2022-07-23T04:37:10;15.88;;;11.30;;
29044;SDS011;16133;49.486;12.176;2022-07-23T04:39:35;15.45;;;10.25;;
29044;SDS011;16133;49.486;12.176;2022-07-23T04:42:01;16.42;;;11.25;;
29044;SDS011;16133;49.486;12.176;2022-07-23T04:44:26;13.68;;;10.18;;
29044;SDS011;16133;49.486;12.176;2022-07-23T04:46:52;15.35;;;9.95;;
29044;SDS011;16133;49.486;12.176;2022-07-23T04:49:17;13.02;;;9.55;;
29044;SDS011;16133;49.486;12.176;2022-07-23T04:51:42;13.70;;;10.45;;
29044;SDS011;16133;49.486;12.176;2022-07-23T04:54:08;19.83;;;11.55;;
29044;SDS011;16133;49.486;12.176;2022-07-23T04:56:33;14.95;;;11.02;;
29044;SDS011;16133;49.486;12.176;2022-07-23T04:58:58;13.82;;;10.52;;
29044;SDS011;16133;49.486;12.176;2022-07-23T05:01:24;11.98;;;9.35;;
29044;SDS011;16133;49.486;12.176;2022-07-23T05:03:49;13.90;;;9.23;;
29044;SDS011;16133;49.486;12.176;2022-07-23T05:06:15;15.52;;;9.68;;
29044;SDS011;16133;49.486;12.176;2022-07-23T05:08:41;13.88;;;9.35;;
29044;SDS011;16133;49.486;12.176;2022-07-23T05:11:06;13.82;;;10.20;;
29044;SDS011;16133;49.486;12.176;2022-07-23T05:13:31;15.55;;;9.82;;
29044;SDS011;16133;49.486;12.176;2022-07-23T05:15:57;12.40;;;9.75;;
29044;SDS011;16133;49.486;12.176;2022-07-23T05:18:22;14.48;;;9.73;;
29044;SDS011;16133;49.486;12.176;2022-07-23T05:20:48;14.40;;;10.30;;
29044;SDS011;16133;49.486;12.176;2022-07-23T05:23:13;13.10;;;9.38;;
29044;SDS011;16133;49.486;12.176;2022-07-23T05:25:39;12.98;;;9.57;;
29044;SDS011;16133;49.486;12.176;2022-07-23T05:28:05;11.73;;;8.95;;
29044;SDS011;16133;49.486;12.176;2022-07-23T05:30:30;11.82;;;9.35;;
29044;SDS011;16133;49.486;12.176;2022-07-23T05:32:55;15.05;;;11.02;;
29044;SDS011;16133;49.486;12.176;2022-07-23T05:35:21;12.02;;;9.52;;
29044;SDS011;16133;49.486;12.176;2022-07-23T05:37:46;15.23;;;10.68;;
29044;SDS011;16133;49.486;12.176;2022-07-23T05:40:12;12.77;;;9.68;;
29044;SDS011;16133;49.486;12.176;2022-07-23T05:42:38;14.10;;;10.50;;
29044;SDS011;16133;49.486;12.176;2022-07-23T05:45:04;15.27;;;11.02;;
29044;SDS011;16133;49.486;12.176;2022-07-23T05:47:41;15.25;;;11.10;;
29044;SDS011;16133;49.486;12.176;2022-07-23T05:50:10;16.65;;;10.48;;
29044;SDS011;16133;49.486;12.176;2022-07-23T05:52:37;15.50;;;10.38;;
29044;SDS011;16133;49.486;12.176;2022-07-23T05:55:03;16.58;;;11.15;;
29044;SDS011;16133;49.486;12.176;2022-07-23T05:57:29;15.45;;;10.90;;
29044;SDS011;16133;49.486;12.176;2022-07-23T05:59:54;18.70;;;10.65;;
29044;SDS011;16133;49.486;12.176;2022-07-23T06:02:20;14.35;;;10.30;;
29044;SDS011;16133;49.486;12.176;2022-07-23T06:04:45;15.02;;;10.52;;
29044;SDS011;16133;49.486;12.176;2022-07-23T06:07:11;15.27;;;11.27;;
29044;SDS011;16133;49.486;12.176;2022-07-23T06:09:36;11.77;;;9.63;;
29044;SDS011;16133;49.486;12.176;2022-07-23T06:12:02;12.93;;;10.10;;
29044;SDS011;16133;49.486;12.176;2022-07-23T06:14:27;13.75;;;9.85;;
29044;SDS011;16133;49.486;12.176;2022-07-23T06:16:52;10.90;;;9.38;;
29044;SDS011;16133;49.486;12.176;2022-07-23T06:19:18;10.82;;;9.50;;
29044;SDS011;16133;49.486;12.176;2022-07-23T06:21:43;10.98;;;9.23;;
29044;SDS011;16133;49.486;12.176;2022-07-23T06:24:09;17.30;;;10.45;;
29044;SDS011;16133;49.486;12.176;2022-07-23T06:26:34;11.45;;;8.63;;
29044;SDS011;16133;49.486;12.176;2022-07-23T06:28:59;11.00;;;9.18;;
29044;SDS011;16133;49.486;12.176;2022-07-23T06:31:25;11.57;;;8.82;;
29044;SDS011;16133;49.486;12.176;2022-07-23T06:33:50;10.45;;;7.88;;
29044;SDS011;16133;49.486;12.176;2022-07-23T06:36:16;9.82;;;8.65;;
29044;SDS011;16133;49.486;12.176;2022-07-23T06:38:41;11.88;;;8.20;;
29044;SDS011;16133;49.486;12.176;2022-07-23T06:41:06;12.18;;;8.13;;
29044;SDS011;16133;49.486;12.176;2022-07-23T06:43:32;10.88;;;7.95;;
29044;SDS011;16133;49.486;12.176;2022-07-23T06:45:57;9.90;;;7.63;;
29044;SDS011;16133;49.486;12.176;2022-07-23T06:48:23;9.90;;;7.25;;
29044;SDS011;16133;49.486;12.176;2022-07-23T06:50:48;14.65;;;8.27;;
29044;SDS011;16133;49.486;12.176;2022-07-23T06:53:13;8.73;;;7.57;;
29044;SDS011;16133;49.486;12.176;2022-07-23T06:55:39;8.75;;;7.35;;
29044;SDS011;16133;49.486;12.176;2022-07-23T06:58:05;10.48;;;6.43;;
29044;SDS011;16133;49.486;12.176;2022-07-23T07:00:31;9.48;;;6.07;;
29044;SDS011;16133;49.486;12.176;2022-07-23T07:02:57;9.95;;;7.32;;
29044;SDS011;16133;49.486;12.176;2022-07-23T07:05:22;7.47;;;5.85;;
29044;SDS011;16133;49.486;12.176;2022-07-23T07:07:50;9.23;;;7.22;;
29044;SDS011;16133;49.486;12.176;2022-07-23T07:10:15;8.68;;;7.22;;
29044;SDS011;16133;49.486;12.176;2022-07-23T07:12:42;8.80;;;6.28;;
29044;SDS011;16133;49.486;12.176;2022-07-23T07:15:07;14.63;;;7.22;;
29044;SDS011;16133;49.486;12.176;2022-07-23T07:17:33;8.55;;;6.85;;
29044;SDS011;16133;49.486;12.176;2022-07-23T07:19:58;7.05;;;5.88;;
29044;SDS011;16133;49.486;12.176;2022-07-23T07:22:24;10.60;;;6.30;;
29044;SDS011;16133;49.486;12.176;2022-07-23T07:24:49;8.40;;;6.13;;
29044;SDS011;16133;49.486;12.176;2022-07-23T07:27:15;8.18;;;6.10;;
29044;SDS011;16133;49.486;12.176;2022-07-23T07:29:40;10.02;;;5.80;;
29044;SDS011;16133;49.486;12.176;2022-07-23T07:32:06;8.75;;;6.38;;
29044;SDS011;16133;49.486;12.176;2022-07-23T07:34:31;9.15;;;5.70;;
29044;SDS011;16133;49.486;12.176;2022-07-23T07:36:56;7.75;;;5.72;;
29044;SDS011;16133;49.486;12.176;2022-07-23T07:39:22;6.25;;;5.30;;
29044;SDS011;16133;49.486;12.176;2022-07-23T07:41:47;9.38;;;6.20;;
29044;SDS011;16133;49.486;12.176;2022-07-23T07:44:12;9.80;;;6.35;;
29044;SDS011;16133;49.486;12.176;2022-07-23T07:46:38;8.18;;;5.80;;
29044;SDS011;16133;49.486;12.176;2022-07-23T07:49:03;7.43;;;5.68;;
29044;SDS011;16133;49.486;12.176;2022-07-23T07:51:29;9.85;;;5.82;;
29044;SDS011;16133;49.486;12.176;2022-07-23T07:53:54;6.05;;;5.40;;
29044;SDS011;16133;49.486;12.176;2022-07-23T07:56:20;9.98;;;5.57;;
29044;SDS011;16133;49.486;12.176;2022-07-23T07:58:45;6.60;;;5.88;;
29044;SDS011;16133;49.486;12.176;2022-07-23T08:01:10;8.63;;;5.68;;
29044;SDS011;16133;49.486;12.176;2022-07-23T08:03:36;6.78;;;5.38;;
29044;SDS011;16133;49.486;12.176;2022-07-23T08:06:01;9.80;;;6.18;;
29044;SDS011;16133;49.486;12.176;2022-07-23T08:08:26;7.07;;;5.63;;
29044;SDS011;16133;49.486;12.176;2022-07-23T08:10:52;7.05;;;5.80;;
29044;SDS011;16133;49.486;12.176;2022-07-23T08:13:17;7.97;;;6.13;;
29044;SDS011;16133;49.486;12.176;2022-07-23T08:15:43;8.55;;;5.38;;
29044;SDS011;16133;49.486;12.176;2022-07-23T08:18:09;7.20;;;5.32;;
29044;SDS011;16133;49.486;12.176;2022-07-23T08:20:34;8.10;;;5.05;;
29044;SDS011;16133;49.486;12.176;2022-07-23T08:23:02;9.07;;;5.40;;
29044;SDS011;16133;49.486;12.176;2022-07-23T08:27:54;8.93;;;5.53;;
29044;SDS011;16133;49.486;12.176;2022-07-23T08:30:21;5.40;;;4.85;;
29044;SDS011;16133;49.486;12.176;2022-07-23T08:35:32;6.25;;;4.97;;
29044;SDS011;16133;49.486;12.176;2022-07-23T08:38:00;6.82;;;5.43;;
29044;SDS011;16133;49.486;12.176;2022-07-23T08:40:30;7.15;;;6.13;;
29044;SDS011;16133;49.486;12.176;2022-07-23T08:42:56;5.78;;;5.07;;
29044;SDS011;16133;49.486;12.176;2022-07-23T08:45:23;7.15;;;5.10;;
29044;SDS011;16133;49.486;12.176;2022-07-23T08:47:50;10.00;;;6.60;;
29044;SDS011;16133;49.486;12.176;2022-07-23T08:50:17;8.88;;;6.65;;
29044;SDS011;16133;49.486;12.176;2022-07-23T08:52:43;8.18;;;6.32;;
29044;SDS011;16133;49.486;12.176;2022-07-23T08:55:09;10.05;;;6.68;;
29044;SDS011;16133;49.486;12.176;2022-07-23T08:57:35;7.10;;;6.03;;
29044;SDS011;16133;49.486;12.176;2022-07-23T09:00:00;6.85;;;6.15;;
29044;SDS011;16133;49.486;12.176;2022-07-23T09:02:26;7.50;;;6.80;;
29044;SDS011;16133;49.486;12.176;2022-07-23T09:04:51;9.43;;;6.75;;
29044;SDS011;16133;49.486;12.176;2022-07-23T09:07:16;7.07;;;6.22;;
29044;SDS011;16133;49.486;12.176;2022-07-23T09:09:42;7.07;;;6.38;;
29044;SDS011;16133;49.486;12.176;2022-07-23T09:12:08;8.32;;;6.57;;
29044;SDS011;16133;49.486;12.176;2022-07-23T09:14:35;8.70;;;6.18;;
29044;SDS011;16133;49.486;12.176;2022-07-23T09:17:11;7.40;;;6.57;;
29044;SDS011;16133;49.486;12.176;2022-07-23T09:19:38;9.00;;;6.13;;
29044;SDS011;16133;49.486;12.176;2022-07-23T09:22:17;6.95;;;6.25;;
29044;SDS011;16133;49.486;12.176;2022-07-23T09:25:01;10.55;;;5.68;;
29044;SDS011;16133;49.486;12.176;2022-07-23T09:30:19;6.20;;;5.55;;
29044;SDS011;16133;49.486;12.176;2022-07-23T09:33:07;7.93;;;6.15;;
29044;SDS011;16133;49.486;12.176;2022-07-23T09:38:11;10.00;;;6.25;;
29044;SDS011;16133;49.486;12.176;2022-07-23T09:40:37;6.35;;;5.75;;
29044;SDS011;16133;49.486;12.176;2022-07-23T09:43:02;12.98;;;6.35;;
29044;SDS011;16133;49.486;12.176;2022-07-23T09:45:28;8.63;;;6.25;;
29044;SDS011;16133;49.486;12.176;2022-07-23T09:48:09;8.30;;;5.90;;
29044;SDS011;16133;49.486;12.176;2022-07-23T09:50:44;7.45;;;6.07;;
29044;SDS011;16133;49.486;12.176;2022-07-23T09:53:31;6.72;;;6.05;;
29044;SDS011;16133;49.486;12.176;2022-07-23T09:55:56;10.43;;;6.70;;
29044;SDS011;16133;49.486;12.176;2022-07-23T09:58:25;8.68;;;6.38;;
29044;SDS011;16133;49.486;12.176;2022-07-23T10:00:54;6.28;;;5.57;;
29044;SDS011;16133;49.486;12.176;2022-07-23T10:03:20;9.82;;;6.90;;
29044;SDS011;16133;49.486;12.176;2022-07-23T10:05:48;7.60;;;6.20;;
29044;SDS011;16133;49.486;12.176;2022-07-23T10:08:17;9.65;;;6.47;;
29044;SDS011;16133;49.486;12.176;2022-07-23T10:10:45;9.38;;;6.70;;
29044;SDS011;16133;49.486;12.176;2022-07-23T10:13:12;8.73;;;6.75;;
29044;SDS011;16133;49.486;12.176;2022-07-23T10:16:05;9.93;;;7.00;;
29044;SDS011;16133;49.486;12.176;2022-07-23T10:18:30;8.93;;;6.97;;
29044;SDS011;16133;49.486;12.176;2022-07-23T10:20:56;9.52;;;6.95;;
29044;SDS011;16133;49.486;12.176;2022-07-23T10:23:33;9.05;;;5.88;;
29044;SDS011;16133;49.486;12.176;2022-07-23T10:28:55;7.80;;;5.65;;
29044;SDS011;16133;49.486;12.176;2022-07-23T10:31:36;7.22;;;5.93;;
29044;SDS011;16133;49.486;12.176;2022-07-23T10:34:24;6.57;;;5.35;;
29044;SDS011;16133;49.486;12.176;2022-07-23T10:39:50;13.35;;;5.65;;
29044;SDS011;16133;49.486;12.176;2022-07-23T10:42:35;7.28;;;5.93;;
29044;SDS011;16133;49.486;12.176;2022-07-23T10:45:01;5.80;;;5.10;;
29044;SDS011;16133;49.486;12.176;2022-07-23T10:47:46;8.02;;;5.35;;
29044;SDS011;16133;49.486;12.176;2022-07-23T10:58:03;5.30;;;4.57;;
29044;SDS011;16133;49.486;12.176;2022-07-23T11:00:33;6.75;;;5.25;;
29044;SDS011;16133;49.486;12.176;2022-07-23T11:03:02;11.10;;;5.22;;
29044;SDS011;16133;49.486;12.176;2022-07-23T11:05:47;9.52;;;5.63;;
29044;SDS011;16133;49.486;12.176;2022-07-23T11:08:14;5.82;;;5.10;;
29044;SDS011;16133;49.486;12.176;2022-07-23T11:29:37;7.03;;;5.35;;
29044;SDS011;16133;49.486;12.176;2022-07-23T11:36:54;7.13;;;5.45;;
29044;SDS011;16133;49.486;12.176;2022-07-23T11:39:20;5.85;;;4.93;;
29044;SDS011;16133;49.486;12.176;2022-07-23T11:41:49;7.40;;;5.50;;
29044;SDS011;16133;49.486;12.176;2022-07-23T11:44:28;5.95;;;4.90;;
29044;SDS011;16133;49.486;12.176;2022-07-23T11:46:58;8.10;;;5.72;;
29044;SDS011;16133;49.486;12.176;2022-07-23T11:49:25;8.02;;;4.90;;
29044;SDS011;16133;49.486;12.176;2022-07-23T11:54:37;5.43;;;4.82;;
29044;SDS011;16133;49.486;12.176;2022-07-23T11:57:13;6.00;;;5.05;;
29044;SDS011;16133;49.486;12.176;2022-07-23T11:59:38;5.25;;;4.30;;
29044;SDS011;16133;49.486;12.176;2022-07-23T12:02:05;5.25;;;4.18;;
29044;SDS011;16133;49.486;12.176;2022-07-23T12:04:41;4.13;;;3.72;;
29044;SDS011;16133;49.486;12.176;2022-07-23T12:10:00;4.45;;;3.95;;
29044;SDS011;16133;49.486;12.176;2022-07-23T12:12:52;5.10;;;4.57;;
29044;SDS011;16133;49.486;12.176;2022-07-23T12:15:18;6.05;;;4.43;;
29044;SDS011;16133;49.486;12.176;2022-07-23T12:17:47;4.97;;;4.25;;
29044;SDS011;16133;49.486;12.176;2022-07-23T12:20:14;5.25;;;4.57;;
29044;SDS011;16133;49.486;12.176;2022-07-23T12:22:42;4.28;;;3.67;;
29044;SDS011;16133;49.486;12.176;2022-07-23T12:25:11;5.43;;;4.60;;
29044;SDS011;16133;49.486;12.176;2022-07-23T12:27:38;6.97;;;5.20;;
29044;SDS011;16133;49.486;12.176;2022-07-23T12:32:45;5.30;;;4.60;;
29044;SDS011;16133;49.486;12.176;2022-07-23T12:35:12;6.88;;;4.90;;
29044;SDS011;16133;49.486;12.176;2022-07-23T12:37:38;6.35;;;4.72;;
29044;SDS011;16133;49.486;12.176;2022-07-23T12:43:11;5.45;;;3.67;;
29044;SDS011;16133;49.486;12.176;2022-07-23T12:46:04;5.28;;;3.78;;
29044;SDS011;16133;49.486;12.176;2022-07-23T12:48:31;6.35;;;3.92;;
29044;SDS011;16133;49.486;12.176;2022-07-23T12:51:06;6.72;;;3.72;;
29044;SDS011;16133;49.486;12.176;2022-07-23T12:53:43;7.65;;;4.32;;
29044;SDS011;16133;49.486;12.176;2022-07-23T12:56:16;5.78;;;4.07;;
29044;SDS011;16133;49.486;12.176;2022-07-23T12:58:55;5.97;;;4.10;;
29044;SDS011;16133;49.486;12.176;2022-07-23T13:09:05;4.97;;;3.95;;
29044;SDS011;16133;49.486;12.176;2022-07-23T13:11:32;4.55;;;3.47;;
29044;SDS011;16133;49.486;12.176;2022-07-23T13:13:58;4.70;;;3.95;;
29044;SDS011;16133;49.486;12.176;2022-07-23T13:16:25;4.80;;;3.85;;
29044;SDS011;16133;49.486;12.176;2022-07-23T13:18:51;4.30;;;3.88;;
29044;SDS011;16133;49.486;12.176;2022-07-23T13:21:17;3.97;;;3.22;;
29044;SDS011;16133;49.486;12.176;2022-07-23T13:23:42;5.28;;;3.80;;
29044;SDS011;16133;49.486;12.176;2022-07-23T13:26:08;5.53;;;3.10;;
29044;SDS011;16133;49.486;12.176;2022-07-23T13:28:33;4.38;;;3.47;;
29044;SDS011;16133;49.486;12.176;2022-07-23T13:30:59;3.95;;;3.38;;
29044;SDS011;16133;49.486;12.176;2022-07-23T13:33:24;5.60;;;3.67;;
29044;SDS011;16133;49.486;12.176;2022-07-23T13:35:50;4.00;;;3.50;;
29044;SDS011;16133;49.486;12.176;2022-07-23T13:38:17;4.20;;;2.95;;
29044;SDS011;16133;49.486;12.176;2022-07-23T13:40:44;4.03;;;3.50;;
29044;SDS011;16133;49.486;12.176;2022-07-23T13:43:12;4.43;;;3.10;;
29044;SDS011;16133;49.486;12.176;2022-07-23T13:45:39;3.70;;;3.40;;
29044;SDS011;16133;49.486;12.176;2022-07-23T13:48:07;3.50;;;3.20;;
29044;SDS011;16133;49.486;12.176;2022-07-23T13:50:33;4.90;;;3.95;;
29044;SDS011;16133;49.486;12.176;2022-07-23T13:53:01;4.03;;;3.35;;
29044;SDS011;16133;49.486;12.176;2022-07-23T13:55:28;4.38;;;3.33;;
29044;SDS011;16133;49.486;12.176;2022-07-23T13:57:53;4.43;;;3.80;;
29044;SDS011;16133;49.486;12.176;2022-07-23T14:00:19;4.18;;;3.50;;
29044;SDS011;16133;49.486;12.176;2022-07-23T14:02:44;5.57;;;3.70;;
29044;SDS011;16133;49.486;12.176;2022-07-23T14:05:10;6.00;;;3.97;;
29044;SDS011;16133;49.486;12.176;2022-07-23T14:07:36;5.05;;;3.70;;
29044;SDS011;16133;49.486;12.176;2022-07-23T14:10:06;4.38;;;3.47;;
29044;SDS011;16133;49.486;12.176;2022-07-23T14:12:33;5.28;;;4.22;;
29044;SDS011;16133;49.486;12.176;2022-07-23T14:14:59;4.30;;;3.90;;
29044;SDS011;16133;49.486;12.176;2022-07-23T14:17:24;6.07;;;3.95;;
29044;SDS011;16133;49.486;12.176;2022-07-23T14:19:50;4.85;;;3.97;;
29044;SDS011;16133;49.486;12.176;2022-07-23T14:22:15;6.43;;;4.47;;
29044;SDS011;16133;49.486;12.176;2022-07-23T14:24:41;3.50;;;3.20;;
29044;SDS011;16133;49.486;12.176;2022-07-23T14:27:06;3.83;;;3.47;;
29044;SDS011;16133;49.486;12.176;2022-07-23T14:29:32;4.22;;;3.53;;
29044;SDS011;16133;49.486;12.176;2022-07-23T14:31:58;5.82;;;3.83;;
29044;SDS011;16133;49.486;12.176;2022-07-23T14:34:24;5.05;;;4.43;;
29044;SDS011;16133;49.486;12.176;2022-07-23T14:36:50;5.20;;;3.95;;
29044;SDS011;16133;49.486;12.176;2022-07-23T14:39:15;4.60;;;3.67;;
29044;SDS011;16133;49.486;12.176;2022-07-23T14:41:41;4.35;;;3.72;;
29044;SDS011;16133;49.486;12.176;2022-07-23T14:44:06;3.95;;;3.50;;
29044;SDS011;16133;49.486;12.176;2022-07-23T14:46:31;4.57;;;3.92;;
29044;SDS011;16133;49.486;12.176;2022-07-23T14:48:58;8.70;;;4.18;;
29044;SDS011;16133;49.486;12.176;2022-07-23T14:51:23;5.57;;;4.07;;
29044;SDS011;16133;49.486;12.176;2022-07-23T14:53:49;5.68;;;4.22;;
29044;SDS011;16133;49.486;12.176;2022-07-23T14:56:14;7.25;;;4.38;;
29044;SDS011;16133;49.486;12.176;2022-07-23T14:58:40;4.75;;;4.00;;
29044;SDS011;16133;49.486;12.176;2022-07-23T15:01:06;6.70;;;4.20;;
29044;SDS011;16133;49.486;12.176;2022-07-23T15:03:32;7.00;;;4.30;;
29044;SDS011;16133;49.486;12.176;2022-07-23T15:05:58;5.88;;;3.92;;
29044;SDS011;16133;49.486;12.176;2022-07-23T15:08:23;4.55;;;3.60;;
29044;SDS011;16133;49.486;12.176;2022-07-23T15:10:49;5.20;;;4.57;;
29044;SDS011;16133;49.486;12.176;2022-07-23T15:13:14;5.63;;;4.80;;
29044;SDS011;16133;49.486;12.176;2022-07-23T15:15:40;7.18;;;4.50;;
29044;SDS011;16133;49.486;12.176;2022-07-23T15:18:05;6.65;;;4.82;;
29044;SDS011;16133;49.486;12.176;2022-07-23T15:20:31;5.65;;;4.47;;
29044;SDS011;16133;49.486;12.176;2022-07-23T15:22:56;7.15;;;5.05;;
29044;SDS011;16133;49.486;12.176;2022-07-23T15:25:22;5.07;;;4.63;;
29044;SDS011;16133;49.486;12.176;2022-07-23T15:27:49;6.35;;;4.90;;
29044;SDS011;16133;49.486;12.176;2022-07-23T15:30:14;5.50;;;4.63;;